sensor_id;sensor_type;location;lat;lon;timestamp;P1;durP1;ratioP1;P2;durP2;ratioP2
13487;SDS011;6816;48.506;9.050;2022-07-05T00:02:55;1.83;;;1.70;;
13487;SDS011;6816;48.506;9.050;2022-07-05T00:05:56;2.17;;;1.80;;
13487;SDS011;6816;48.506;9.050;2022-07-05T00:08:57;2.03;;;1.60;;
13487;SDS011;6816;48.506;9.050;2022-07-05T00:11:58;1.90;;;1.80;;
13487;SDS011;6816;48.506;9.050;2022-07-05T00:14:59;1.70;;;1.60;;
13487;SDS011;6816;48.506;9.050;2022-07-05T00:18:01;3.83;;;1.75;;
13487;SDS011;6816;48.506;9.050;2022-07-05T00:21:02;2.05;;;1.90;;
13487;SDS011;6816;48.506;9.050;2022-07-05T00:24:03;2.03;;;1.90;;
13487;SDS011;6816;48.506;9.050;2022-07-05T00:27:03;2.40;;;2.10;;
13487;SDS011;6816;48.506;9.050;2022-07-05T00:30:05;2.65;;;1.65;;
13487;SDS011;6816;48.506;9.050;2022-07-05T00:33:06;2.55;;;1.75;;
13487;SDS011;6816;48.506;9.050;2022-07-05T00:36:07;1.70;;;1.60;;
13487;SDS011;6816;48.506;9.050;2022-07-05T00:39:08;1.92;;;1.80;;
13487;SDS011;6816;48.506;9.050;2022-07-05T00:42:09;2.15;;;1.67;;
13487;SDS011;6816;48.506;9.050;2022-07-05T00:45:09;2.05;;;1.85;;
13487;SDS011;6816;48.506;9.050;2022-07-05T00:48:10;1.50;;;1.40;;
13487;SDS011;6816;48.506;9.050;2022-07-05T00:51:11;2.10;;;1.90;;
13487;SDS011;6816;48.506;9.050;2022-07-05T00:54:12;1.52;;;1.42;;
13487;SDS011;6816;48.506;9.050;2022-07-05T00:57:12;1.85;;;1.70;;
13487;SDS011;6816;48.506;9.050;2022-07-05T01:00:13;1.73;;;1.60;;
13487;SDS011;6816;48.506;9.050;2022-07-05T01:03:14;2.15;;;1.77;;
13487;SDS011;6816;48.506;9.050;2022-07-05T01:06:15;1.70;;;1.40;;
13487;SDS011;6816;48.506;9.050;2022-07-05T01:09:18;1.88;;;1.70;;
13487;SDS011;6816;48.506;9.050;2022-07-05T01:12:20;2.42;;;1.90;;
13487;SDS011;6816;48.506;9.050;2022-07-05T01:15:22;3.40;;;1.80;;
13487;SDS011;6816;48.506;9.050;2022-07-05T01:18:24;3.55;;;1.85;;
13487;SDS011;6816;48.506;9.050;2022-07-05T01:21:25;1.90;;;1.80;;
13487;SDS011;6816;48.506;9.050;2022-07-05T01:24:27;1.83;;;1.73;;
13487;SDS011;6816;48.506;9.050;2022-07-05T01:27:28;1.83;;;1.73;;
13487;SDS011;6816;48.506;9.050;2022-07-05T01:30:29;3.33;;;1.90;;
13487;SDS011;6816;48.506;9.050;2022-07-05T01:33:32;1.87;;;1.70;;
13487;SDS011;6816;48.506;9.050;2022-07-05T01:36:33;3.13;;;1.70;;
13487;SDS011;6816;48.506;9.050;2022-07-05T01:39:34;2.33;;;1.60;;
13487;SDS011;6816;48.506;9.050;2022-07-05T01:42:35;2.27;;;1.90;;
13487;SDS011;6816;48.506;9.050;2022-07-05T01:45:36;2.77;;;1.90;;
13487;SDS011;6816;48.506;9.050;2022-07-05T01:48:39;1.80;;;1.70;;
13487;SDS011;6816;48.506;9.050;2022-07-05T01:51:44;1.93;;;1.83;;
13487;SDS011;6816;48.506;9.050;2022-07-05T01:54:50;3.03;;;1.90;;
13487;SDS011;6816;48.506;9.050;2022-07-05T01:57:51;2.37;;;1.80;;
13487;SDS011;6816;48.506;9.050;2022-07-05T02:00:52;2.53;;;1.90;;
13487;SDS011;6816;48.506;9.050;2022-07-05T02:03:55;1.97;;;1.87;;
13487;SDS011;6816;48.506;9.050;2022-07-05T02:06:56;2.00;;;1.90;;
13487;SDS011;6816;48.506;9.050;2022-07-05T02:09:56;2.50;;;1.90;;
13487;SDS011;6816;48.506;9.050;2022-07-05T02:12:57;2.43;;;1.93;;
13487;SDS011;6816;48.506;9.050;2022-07-05T02:15:58;2.30;;;2.10;;
13487;SDS011;6816;48.506;9.050;2022-07-05T02:18:58;1.90;;;1.80;;
13487;SDS011;6816;48.506;9.050;2022-07-05T02:21:59;3.10;;;2.10;;
13487;SDS011;6816;48.506;9.050;2022-07-05T02:25:00;1.93;;;1.73;;
13487;SDS011;6816;48.506;9.050;2022-07-05T02:28:00;3.10;;;1.80;;
13487;SDS011;6816;48.506;9.050;2022-07-05T02:31:01;2.00;;;1.90;;
13487;SDS011;6816;48.506;9.050;2022-07-05T02:34:02;2.30;;;2.10;;
13487;SDS011;6816;48.506;9.050;2022-07-05T02:37:03;2.00;;;1.90;;
13487;SDS011;6816;48.506;9.050;2022-07-05T02:40:03;2.00;;;1.90;;
13487;SDS011;6816;48.506;9.050;2022-07-05T02:43:04;2.00;;;1.90;;
13487;SDS011;6816;48.506;9.050;2022-07-05T02:46:06;5.07;;;2.10;;
13487;SDS011;6816;48.506;9.050;2022-07-05T02:49:07;2.03;;;1.83;;
13487;SDS011;6816;48.506;9.050;2022-07-05T02:52:08;1.90;;;1.80;;
13487;SDS011;6816;48.506;9.050;2022-07-05T02:55:09;2.87;;;1.80;;
13487;SDS011;6816;48.506;9.050;2022-07-05T02:58:09;3.47;;;1.93;;
13487;SDS011;6816;48.506;9.050;2022-07-05T03:01:10;2.77;;;2.10;;
13487;SDS011;6816;48.506;9.050;2022-07-05T03:04:11;2.73;;;1.90;;
13487;SDS011;6816;48.506;9.050;2022-07-05T03:07:11;3.30;;;2.00;;
13487;SDS011;6816;48.506;9.050;2022-07-05T03:10:12;2.67;;;1.80;;
13487;SDS011;6816;48.506;9.050;2022-07-05T03:13:13;3.00;;;1.70;;
13487;SDS011;6816;48.506;9.050;2022-07-05T03:16:13;3.20;;;2.27;;
13487;SDS011;6816;48.506;9.050;2022-07-05T03:19:14;3.63;;;1.70;;
13487;SDS011;6816;48.506;9.050;2022-07-05T03:22:15;3.33;;;1.83;;
13487;SDS011;6816;48.506;9.050;2022-07-05T03:25:15;5.13;;;2.20;;
13487;SDS011;6816;48.506;9.050;2022-07-05T03:28:16;3.37;;;2.13;;
13487;SDS011;6816;48.506;9.050;2022-07-05T03:31:17;1.93;;;1.80;;
13487;SDS011;6816;48.506;9.050;2022-07-05T03:34:17;2.13;;;1.87;;
13487;SDS011;6816;48.506;9.050;2022-07-05T03:37:18;1.97;;;1.87;;
13487;SDS011;6816;48.506;9.050;2022-07-05T03:40:19;5.70;;;1.73;;
13487;SDS011;6816;48.506;9.050;2022-07-05T03:43:19;2.10;;;1.90;;
13487;SDS011;6816;48.506;9.050;2022-07-05T03:46:20;2.10;;;1.90;;
13487;SDS011;6816;48.506;9.050;2022-07-05T03:49:20;1.97;;;1.80;;
13487;SDS011;6816;48.506;9.050;2022-07-05T03:52:21;3.40;;;2.50;;
13487;SDS011;6816;48.506;9.050;2022-07-05T03:55:22;3.07;;;2.00;;
13487;SDS011;6816;48.506;9.050;2022-07-05T03:58:23;6.90;;;2.50;;
13487;SDS011;6816;48.506;9.050;2022-07-05T04:01:24;2.83;;;1.90;;
13487;SDS011;6816;48.506;9.050;2022-07-05T04:04:25;4.80;;;2.00;;
13487;SDS011;6816;48.506;9.050;2022-07-05T04:07:26;2.43;;;1.90;;
13487;SDS011;6816;48.506;9.050;2022-07-05T04:10:27;4.00;;;2.20;;
13487;SDS011;6816;48.506;9.050;2022-07-05T04:13:28;2.80;;;2.00;;
13487;SDS011;6816;48.506;9.050;2022-07-05T04:16:29;3.10;;;2.13;;
13487;SDS011;6816;48.506;9.050;2022-07-05T04:19:29;4.63;;;1.80;;
13487;SDS011;6816;48.506;9.050;2022-07-05T04:22:30;2.47;;;2.10;;
13487;SDS011;6816;48.506;9.050;2022-07-05T04:25:31;2.30;;;2.07;;
13487;SDS011;6816;48.506;9.050;2022-07-05T04:28:31;2.13;;;1.73;;
13487;SDS011;6816;48.506;9.050;2022-07-05T04:31:32;2.23;;;2.03;;
13487;SDS011;6816;48.506;9.050;2022-07-05T04:34:32;3.80;;;2.10;;
13487;SDS011;6816;48.506;9.050;2022-07-05T04:37:33;4.63;;;2.37;;
13487;SDS011;6816;48.506;9.050;2022-07-05T04:40:34;2.60;;;2.40;;
13487;SDS011;6816;48.506;9.050;2022-07-05T04:43:34;3.53;;;2.80;;
13487;SDS011;6816;48.506;9.050;2022-07-05T04:46:35;3.20;;;2.50;;
13487;SDS011;6816;48.506;9.050;2022-07-05T04:49:36;3.70;;;2.37;;
13487;SDS011;6816;48.506;9.050;2022-07-05T04:52:36;2.50;;;2.23;;
13487;SDS011;6816;48.506;9.050;2022-07-05T04:55:37;2.60;;;2.40;;
13487;SDS011;6816;48.506;9.050;2022-07-05T04:58:38;4.57;;;2.70;;
13487;SDS011;6816;48.506;9.050;2022-07-05T05:01:38;3.90;;;2.50;;
13487;SDS011;6816;48.506;9.050;2022-07-05T05:04:39;3.67;;;2.53;;
13487;SDS011;6816;48.506;9.050;2022-07-05T05:07:43;4.53;;;2.33;;
13487;SDS011;6816;48.506;9.050;2022-07-05T05:10:44;3.30;;;2.60;;
13487;SDS011;6816;48.506;9.050;2022-07-05T05:13:45;6.17;;;2.60;;
13487;SDS011;6816;48.506;9.050;2022-07-05T05:16:46;2.97;;;2.33;;
13487;SDS011;6816;48.506;9.050;2022-07-05T05:19:47;3.77;;;2.50;;
13487;SDS011;6816;48.506;9.050;2022-07-05T05:22:48;2.80;;;2.30;;
13487;SDS011;6816;48.506;9.050;2022-07-05T05:25:48;2.47;;;2.27;;
13487;SDS011;6816;48.506;9.050;2022-07-05T05:28:49;3.22;;;2.28;;
13487;SDS011;6816;48.506;9.050;2022-07-05T05:31:50;3.53;;;2.33;;
13487;SDS011;6816;48.506;9.050;2022-07-05T05:34:51;2.90;;;2.55;;
13487;SDS011;6816;48.506;9.050;2022-07-05T05:37:52;2.83;;;2.63;;
13487;SDS011;6816;48.506;9.050;2022-07-05T05:40:54;4.20;;;2.35;;
13487;SDS011;6816;48.506;9.050;2022-07-05T05:43:55;5.85;;;2.17;;
13487;SDS011;6816;48.506;9.050;2022-07-05T05:46:56;3.55;;;2.25;;
13487;SDS011;6816;48.506;9.050;2022-07-05T05:49:56;3.15;;;2.25;;
13487;SDS011;6816;48.506;9.050;2022-07-05T05:52:57;2.95;;;2.30;;
13487;SDS011;6816;48.506;9.050;2022-07-05T05:55:58;4.75;;;2.30;;
13487;SDS011;6816;48.506;9.050;2022-07-05T05:58:59;3.60;;;2.45;;
13487;SDS011;6816;48.506;9.050;2022-07-05T06:02:00;3.80;;;2.35;;
13487;SDS011;6816;48.506;9.050;2022-07-05T06:05:01;2.40;;;2.20;;
13487;SDS011;6816;48.506;9.050;2022-07-05T06:08:02;3.38;;;2.35;;
13487;SDS011;6816;48.506;9.050;2022-07-05T06:11:03;4.28;;;2.38;;
13487;SDS011;6816;48.506;9.050;2022-07-05T06:14:05;2.47;;;2.05;;
13487;SDS011;6816;48.506;9.050;2022-07-05T06:17:06;4.38;;;2.25;;
13487;SDS011;6816;48.506;9.050;2022-07-05T06:20:12;2.92;;;2.22;;
13487;SDS011;6816;48.506;9.050;2022-07-05T06:23:20;2.45;;;2.08;;
13487;SDS011;6816;48.506;9.050;2022-07-05T06:26:21;2.25;;;2.05;;
13487;SDS011;6816;48.506;9.050;2022-07-05T06:29:21;2.33;;;2.17;;
13487;SDS011;6816;48.506;9.050;2022-07-05T06:32:22;2.85;;;2.17;;
13487;SDS011;6816;48.506;9.050;2022-07-05T06:35:24;4.97;;;1.90;;
13487;SDS011;6816;48.506;9.050;2022-07-05T06:38:25;4.30;;;2.08;;
13487;SDS011;6816;48.506;9.050;2022-07-05T06:41:25;2.10;;;1.90;;
13487;SDS011;6816;48.506;9.050;2022-07-05T06:44:29;2.83;;;2.15;;
13487;SDS011;6816;48.506;9.050;2022-07-05T06:47:30;2.85;;;1.95;;
13487;SDS011;6816;48.506;9.050;2022-07-05T06:50:32;3.42;;;2.00;;
13487;SDS011;6816;48.506;9.050;2022-07-05T06:53:35;1.83;;;1.70;;
13487;SDS011;6816;48.506;9.050;2022-07-05T06:56:36;2.00;;;1.80;;
13487;SDS011;6816;48.506;9.050;2022-07-05T06:59:36;4.20;;;2.03;;
13487;SDS011;6816;48.506;9.050;2022-07-05T07:02:37;2.97;;;1.90;;
13487;SDS011;6816;48.506;9.050;2022-07-05T07:05:38;1.90;;;1.67;;
13487;SDS011;6816;48.506;9.050;2022-07-05T07:08:38;3.53;;;1.52;;
13487;SDS011;6816;48.506;9.050;2022-07-05T07:11:57;3.08;;;1.70;;
13487;SDS011;6816;48.506;9.050;2022-07-05T07:14:58;2.00;;;1.42;;
13487;SDS011;6816;48.506;9.050;2022-07-05T07:17:59;1.63;;;1.50;;
13487;SDS011;6816;48.506;9.050;2022-07-05T07:21:00;1.48;;;1.38;;
13487;SDS011;6816;48.506;9.050;2022-07-05T07:24:10;3.20;;;1.70;;
13487;SDS011;6816;48.506;9.050;2022-07-05T07:27:12;2.03;;;1.60;;
13487;SDS011;6816;48.506;9.050;2022-07-05T07:30:16;2.42;;;1.50;;
13487;SDS011;6816;48.506;9.050;2022-07-05T07:33:18;3.03;;;1.45;;
13487;SDS011;6816;48.506;9.050;2022-07-05T07:36:19;2.13;;;1.50;;
13487;SDS011;6816;48.506;9.050;2022-07-05T07:39:20;1.85;;;1.25;;
13487;SDS011;6816;48.506;9.050;2022-07-05T07:42:20;1.15;;;1.10;;
13487;SDS011;6816;48.506;9.050;2022-07-05T07:45:21;1.70;;;1.33;;
13487;SDS011;6816;48.506;9.050;2022-07-05T07:48:22;1.30;;;1.20;;
13487;SDS011;6816;48.506;9.050;2022-07-05T07:51:22;1.88;;;1.20;;
13487;SDS011;6816;48.506;9.050;2022-07-05T07:54:23;1.20;;;1.00;;
13487;SDS011;6816;48.506;9.050;2022-07-05T07:57:24;2.50;;;1.10;;
13487;SDS011;6816;48.506;9.050;2022-07-05T08:00:24;1.60;;;1.13;;
13487;SDS011;6816;48.506;9.050;2022-07-05T08:03:25;1.98;;;1.23;;
13487;SDS011;6816;48.506;9.050;2022-07-05T08:06:25;1.48;;;1.38;;
13487;SDS011;6816;48.506;9.050;2022-07-05T08:09:26;1.70;;;1.15;;
13487;SDS011;6816;48.506;9.050;2022-07-05T08:12:27;2.03;;;1.20;;
13487;SDS011;6816;48.506;9.050;2022-07-05T08:15:28;2.60;;;1.38;;
13487;SDS011;6816;48.506;9.050;2022-07-05T08:18:28;1.35;;;1.20;;
13487;SDS011;6816;48.506;9.050;2022-07-05T08:21:47;1.00;;;1.00;;
13487;SDS011;6816;48.506;9.050;2022-07-05T08:24:48;1.35;;;1.13;;
13487;SDS011;6816;48.506;9.050;2022-07-05T08:27:49;1.20;;;1.10;;
13487;SDS011;6816;48.506;9.050;2022-07-05T08:30:53;1.40;;;1.30;;
13487;SDS011;6816;48.506;9.050;2022-07-05T08:33:54;1.42;;;1.10;;
13487;SDS011;6816;48.506;9.050;2022-07-05T08:36:55;4.30;;;1.30;;
13487;SDS011;6816;48.506;9.050;2022-07-05T08:39:55;1.25;;;1.15;;
13487;SDS011;6816;48.506;9.050;2022-07-05T08:42:56;1.38;;;1.10;;
13487;SDS011;6816;48.506;9.050;2022-07-05T08:45:58;1.25;;;1.00;;
13487;SDS011;6816;48.506;9.050;2022-07-05T08:49:01;4.05;;;1.10;;
13487;SDS011;6816;48.506;9.050;2022-07-05T08:52:04;1.20;;;1.10;;
13487;SDS011;6816;48.506;9.050;2022-07-05T08:55:10;1.52;;;1.42;;
13487;SDS011;6816;48.506;9.050;2022-07-05T08:58:12;1.30;;;1.20;;
13487;SDS011;6816;48.506;9.050;2022-07-05T09:01:13;1.40;;;1.20;;
13487;SDS011;6816;48.506;9.050;2022-07-05T09:04:33;4.97;;;1.10;;
13487;SDS011;6816;48.506;9.050;2022-07-05T09:07:37;0.95;;;0.93;;
13487;SDS011;6816;48.506;9.050;2022-07-05T09:10:42;0.90;;;0.90;;
13487;SDS011;6816;48.506;9.050;2022-07-05T09:13:45;1.08;;;0.98;;
13487;SDS011;6816;48.506;9.050;2022-07-05T09:17:11;0.82;;;0.82;;
13487;SDS011;6816;48.506;9.050;2022-07-05T09:20:13;1.25;;;1.10;;
13487;SDS011;6816;48.506;9.050;2022-07-05T09:23:19;1.05;;;0.82;;
13487;SDS011;6816;48.506;9.050;2022-07-05T09:26:31;2.15;;;0.93;;
13487;SDS011;6816;48.506;9.050;2022-07-05T09:29:33;1.30;;;1.00;;
13487;SDS011;6816;48.506;9.050;2022-07-05T09:32:34;0.85;;;0.85;;
13487;SDS011;6816;48.506;9.050;2022-07-05T09:38:58;1.48;;;0.95;;
13487;SDS011;6816;48.506;9.050;2022-07-05T09:45:12;0.80;;;0.80;;
13487;SDS011;6816;48.506;9.050;2022-07-05T09:48:23;0.88;;;0.80;;
13487;SDS011;6816;48.506;9.050;2022-07-05T09:51:25;0.80;;;0.80;;
13487;SDS011;6816;48.506;9.050;2022-07-05T09:54:26;3.67;;;3.20;;
13487;SDS011;6816;48.506;9.050;2022-07-05T09:57:27;1.33;;;1.23;;
13487;SDS011;6816;48.506;9.050;2022-07-05T10:00:28;1.00;;;0.90;;
13487;SDS011;6816;48.506;9.050;2022-07-05T10:03:29;1.58;;;0.90;;
13487;SDS011;6816;48.506;9.050;2022-07-05T10:06:31;0.80;;;0.80;;
13487;SDS011;6816;48.506;9.050;2022-07-05T10:09:33;1.25;;;0.90;;
13487;SDS011;6816;48.506;9.050;2022-07-05T10:12:35;1.58;;;0.88;;
13487;SDS011;6816;48.506;9.050;2022-07-05T10:15:37;1.92;;;0.80;;
13487;SDS011;6816;48.506;9.050;2022-07-05T10:18:37;0.80;;;0.80;;
13487;SDS011;6816;48.506;9.050;2022-07-05T10:21:40;1.52;;;0.85;;
13487;SDS011;6816;48.506;9.050;2022-07-05T10:24:41;0.77;;;0.68;;
13487;SDS011;6816;48.506;9.050;2022-07-05T10:27:43;0.70;;;0.70;;
13487;SDS011;6816;48.506;9.050;2022-07-05T10:30:45;1.05;;;0.80;;
13487;SDS011;6816;48.506;9.050;2022-07-05T10:33:46;0.80;;;0.77;;
13487;SDS011;6816;48.506;9.050;2022-07-05T10:36:49;0.68;;;0.60;;
13487;SDS011;6816;48.506;9.050;2022-07-05T10:39:49;0.82;;;0.75;;
13487;SDS011;6816;48.506;9.050;2022-07-05T10:43:00;0.82;;;0.80;;
13487;SDS011;6816;48.506;9.050;2022-07-05T10:46:02;1.50;;;0.70;;
13487;SDS011;6816;48.506;9.050;2022-07-05T10:49:11;2.97;;;0.93;;
13487;SDS011;6816;48.506;9.050;2022-07-05T10:52:21;0.70;;;0.70;;
13487;SDS011;6816;48.506;9.050;2022-07-05T10:55:23;1.58;;;0.90;;
13487;SDS011;6816;48.506;9.050;2022-07-05T11:01:44;1.08;;;0.63;;
13487;SDS011;6816;48.506;9.050;2022-07-05T11:04:44;1.05;;;0.68;;
13487;SDS011;6816;48.506;9.050;2022-07-05T11:11:15;1.58;;;0.60;;
13487;SDS011;6816;48.506;9.050;2022-07-05T11:17:20;0.90;;;0.75;;
13487;SDS011;6816;48.506;9.050;2022-07-05T11:20:30;0.63;;;0.60;;
13487;SDS011;6816;48.506;9.050;2022-07-05T11:23:32;0.85;;;0.65;;
13487;SDS011;6816;48.506;9.050;2022-07-05T11:26:32;1.75;;;0.80;;
13487;SDS011;6816;48.506;9.050;2022-07-05T11:32:50;0.88;;;0.77;;
13487;SDS011;6816;48.506;9.050;2022-07-05T11:35:51;1.60;;;0.70;;
13487;SDS011;6816;48.506;9.050;2022-07-05T11:39:09;0.82;;;0.73;;
13487;SDS011;6816;48.506;9.050;2022-07-05T11:42:20;0.85;;;0.70;;
13487;SDS011;6816;48.506;9.050;2022-07-05T11:45:22;0.60;;;0.60;;
13487;SDS011;6816;48.506;9.050;2022-07-05T11:48:22;1.75;;;0.88;;
13487;SDS011;6816;48.506;9.050;2022-07-05T11:51:25;0.80;;;0.80;;
13487;SDS011;6816;48.506;9.050;2022-07-05T11:54:27;0.75;;;0.60;;
13487;SDS011;6816;48.506;9.050;2022-07-05T11:57:30;2.45;;;0.63;;
13487;SDS011;6816;48.506;9.050;2022-07-05T12:00:34;0.77;;;0.73;;
13487;SDS011;6816;48.506;9.050;2022-07-05T12:03:36;0.63;;;0.60;;
13487;SDS011;6816;48.506;9.050;2022-07-05T12:06:42;0.80;;;0.80;;
13487;SDS011;6816;48.506;9.050;2022-07-05T12:09:42;0.65;;;0.65;;
13487;SDS011;6816;48.506;9.050;2022-07-05T12:13:05;0.90;;;0.65;;
13487;SDS011;6816;48.506;9.050;2022-07-05T12:16:07;1.20;;;0.70;;
13487;SDS011;6816;48.506;9.050;2022-07-05T12:19:08;0.70;;;0.70;;
13487;SDS011;6816;48.506;9.050;2022-07-05T12:22:09;1.73;;;0.80;;
13487;SDS011;6816;48.506;9.050;2022-07-05T12:25:20;0.70;;;0.70;;
13487;SDS011;6816;48.506;9.050;2022-07-05T12:28:21;0.80;;;0.65;;
13487;SDS011;6816;48.506;9.050;2022-07-05T12:31:23;0.60;;;0.60;;
13487;SDS011;6816;48.506;9.050;2022-07-05T12:34:24;1.35;;;0.70;;
13487;SDS011;6816;48.506;9.050;2022-07-05T12:37:28;0.60;;;0.60;;
13487;SDS011;6816;48.506;9.050;2022-07-05T12:40:31;0.70;;;0.68;;
13487;SDS011;6816;48.506;9.050;2022-07-05T12:43:33;0.73;;;0.63;;
13487;SDS011;6816;48.506;9.050;2022-07-05T12:47:02;1.50;;;0.70;;
13487;SDS011;6816;48.506;9.050;2022-07-05T12:50:05;1.25;;;0.80;;
13487;SDS011;6816;48.506;9.050;2022-07-05T12:53:08;0.80;;;0.80;;
13487;SDS011;6816;48.506;9.050;2022-07-05T12:56:28;1.85;;;0.93;;
13487;SDS011;6816;48.506;9.050;2022-07-05T12:59:57;1.33;;;0.80;;
13487;SDS011;6816;48.506;9.050;2022-07-05T13:03:04;0.75;;;0.70;;
13487;SDS011;6816;48.506;9.050;2022-07-05T13:06:04;0.70;;;0.70;;
13487;SDS011;6816;48.506;9.050;2022-07-05T13:09:05;1.15;;;0.80;;
13487;SDS011;6816;48.506;9.050;2022-07-05T13:12:12;2.13;;;0.70;;
13487;SDS011;6816;48.506;9.050;2022-07-05T13:15:24;0.77;;;0.77;;
13487;SDS011;6816;48.506;9.050;2022-07-05T13:18:25;1.42;;;0.90;;
13487;SDS011;6816;48.506;9.050;2022-07-05T13:21:26;0.70;;;0.70;;
13487;SDS011;6816;48.506;9.050;2022-07-05T13:24:27;1.73;;;0.90;;
13487;SDS011;6816;48.506;9.050;2022-07-05T13:27:28;0.70;;;0.70;;
13487;SDS011;6816;48.506;9.050;2022-07-05T13:30:29;1.90;;;0.80;;
13487;SDS011;6816;48.506;9.050;2022-07-05T13:33:29;0.73;;;0.73;;
13487;SDS011;6816;48.506;9.050;2022-07-05T13:36:32;0.75;;;0.75;;
13487;SDS011;6816;48.506;9.050;2022-07-05T13:39:36;0.93;;;0.85;;
13487;SDS011;6816;48.506;9.050;2022-07-05T13:42:38;0.73;;;0.70;;
13487;SDS011;6816;48.506;9.050;2022-07-05T13:45:39;1.02;;;0.90;;
13487;SDS011;6816;48.506;9.050;2022-07-05T13:48:40;3.33;;;0.70;;
13487;SDS011;6816;48.506;9.050;2022-07-05T13:51:41;0.88;;;0.88;;
13487;SDS011;6816;48.506;9.050;2022-07-05T13:54:42;0.80;;;0.80;;
13487;SDS011;6816;48.506;9.050;2022-07-05T13:57:43;0.70;;;0.70;;
13487;SDS011;6816;48.506;9.050;2022-07-05T14:00:46;1.23;;;0.90;;
13487;SDS011;6816;48.506;9.050;2022-07-05T14:03:46;1.08;;;0.77;;
13487;SDS011;6816;48.506;9.050;2022-07-05T14:06:47;1.00;;;1.00;;
13487;SDS011;6816;48.506;9.050;2022-07-05T14:09:49;1.13;;;1.00;;
13487;SDS011;6816;48.506;9.050;2022-07-05T14:12:50;2.10;;;0.98;;
13487;SDS011;6816;48.506;9.050;2022-07-05T14:15:51;1.50;;;0.65;;
13487;SDS011;6816;48.506;9.050;2022-07-05T14:18:52;2.33;;;0.70;;
13487;SDS011;6816;48.506;9.050;2022-07-05T14:21:53;1.23;;;0.98;;
13487;SDS011;6816;48.506;9.050;2022-07-05T14:24:54;1.10;;;0.80;;
13487;SDS011;6816;48.506;9.050;2022-07-05T14:27:54;0.90;;;0.90;;
13487;SDS011;6816;48.506;9.050;2022-07-05T14:30:55;0.90;;;0.90;;
13487;SDS011;6816;48.506;9.050;2022-07-05T14:33:55;1.17;;;1.05;;
13487;SDS011;6816;48.506;9.050;2022-07-05T14:36:56;1.02;;;0.80;;
13487;SDS011;6816;48.506;9.050;2022-07-05T14:39:59;0.95;;;0.80;;
13487;SDS011;6816;48.506;9.050;2022-07-05T14:43:00;1.10;;;0.90;;
13487;SDS011;6816;48.506;9.050;2022-07-05T14:46:01;1.55;;;0.90;;
13487;SDS011;6816;48.506;9.050;2022-07-05T14:49:02;1.20;;;1.00;;
13487;SDS011;6816;48.506;9.050;2022-07-05T14:52:03;0.80;;;0.80;;
13487;SDS011;6816;48.506;9.050;2022-07-05T14:55:04;1.35;;;0.90;;
13487;SDS011;6816;48.506;9.050;2022-07-05T14:58:05;0.75;;;0.75;;
13487;SDS011;6816;48.506;9.050;2022-07-05T15:01:06;0.95;;;0.82;;
13487;SDS011;6816;48.506;9.050;2022-07-05T15:04:06;1.38;;;0.88;;
13487;SDS011;6816;48.506;9.050;2022-07-05T15:07:07;1.73;;;0.90;;
13487;SDS011;6816;48.506;9.050;2022-07-05T15:10:08;1.55;;;0.80;;
13487;SDS011;6816;48.506;9.050;2022-07-05T15:13:09;1.15;;;0.90;;
13487;SDS011;6816;48.506;9.050;2022-07-05T15:16:11;0.90;;;0.90;;
13487;SDS011;6816;48.506;9.050;2022-07-05T15:19:12;1.15;;;1.05;;
13487;SDS011;6816;48.506;9.050;2022-07-05T15:22:13;2.17;;;0.98;;
13487;SDS011;6816;48.506;9.050;2022-07-05T15:25:14;0.85;;;0.85;;
13487;SDS011;6816;48.506;9.050;2022-07-05T15:28:15;1.00;;;0.90;;
13487;SDS011;6816;48.506;9.050;2022-07-05T15:31:16;0.77;;;0.77;;
13487;SDS011;6816;48.506;9.050;2022-07-05T15:34:17;0.82;;;0.82;;
13487;SDS011;6816;48.506;9.050;2022-07-05T15:37:17;0.80;;;0.80;;
13487;SDS011;6816;48.506;9.050;2022-07-05T15:40:19;1.88;;;1.00;;
13487;SDS011;6816;48.506;9.050;2022-07-05T15:43:19;1.00;;;0.90;;
13487;SDS011;6816;48.506;9.050;2022-07-05T15:46:24;1.45;;;0.98;;
13487;SDS011;6816;48.506;9.050;2022-07-05T15:49:25;0.88;;;0.82;;
13487;SDS011;6816;48.506;9.050;2022-07-05T15:52:26;0.70;;;0.70;;
13487;SDS011;6816;48.506;9.050;2022-07-05T15:55:27;1.05;;;0.85;;
13487;SDS011;6816;48.506;9.050;2022-07-05T15:58:31;0.80;;;0.80;;
13487;SDS011;6816;48.506;9.050;2022-07-05T16:01:32;0.90;;;0.90;;
13487;SDS011;6816;48.506;9.050;2022-07-05T16:04:33;1.23;;;1.13;;
13487;SDS011;6816;48.506;9.050;2022-07-05T16:07:33;1.17;;;0.82;;
13487;SDS011;6816;48.506;9.050;2022-07-05T16:10:34;0.80;;;0.80;;
13487;SDS011;6816;48.506;9.050;2022-07-05T16:13:35;2.35;;;1.10;;
13487;SDS011;6816;48.506;9.050;2022-07-05T16:16:35;1.23;;;0.95;;
13487;SDS011;6816;48.506;9.050;2022-07-05T16:19:36;3.28;;;1.08;;
13487;SDS011;6816;48.506;9.050;2022-07-05T16:22:36;3.20;;;1.00;;
13487;SDS011;6816;48.506;9.050;2022-07-05T16:25:37;2.90;;;0.90;;
13487;SDS011;6816;48.506;9.050;2022-07-05T16:28:38;2.25;;;0.90;;
13487;SDS011;6816;48.506;9.050;2022-07-05T16:31:39;2.35;;;0.80;;
13487;SDS011;6816;48.506;9.050;2022-07-05T16:34:39;1.08;;;0.80;;
13487;SDS011;6816;48.506;9.050;2022-07-05T16:37:40;1.50;;;0.90;;
13487;SDS011;6816;48.506;9.050;2022-07-05T16:40:41;1.73;;;1.10;;
13487;SDS011;6816;48.506;9.050;2022-07-05T16:43:42;0.80;;;0.80;;
13487;SDS011;6816;48.506;9.050;2022-07-05T16:46:44;0.90;;;0.90;;
13487;SDS011;6816;48.506;9.050;2022-07-05T16:49:45;1.45;;;0.98;;
13487;SDS011;6816;48.506;9.050;2022-07-05T16:52:45;2.22;;;0.88;;
13487;SDS011;6816;48.506;9.050;2022-07-05T16:55:46;0.85;;;0.70;;
13487;SDS011;6816;48.506;9.050;2022-07-05T16:58:48;0.77;;;0.77;;
13487;SDS011;6816;48.506;9.050;2022-07-05T17:01:50;3.10;;;0.80;;
13487;SDS011;6816;48.506;9.050;2022-07-05T17:04:50;2.25;;;0.90;;
13487;SDS011;6816;48.506;9.050;2022-07-05T17:07:52;0.80;;;0.80;;
13487;SDS011;6816;48.506;9.050;2022-07-05T17:10:52;1.25;;;0.70;;
13487;SDS011;6816;48.506;9.050;2022-07-05T17:13:53;1.95;;;0.80;;
13487;SDS011;6816;48.506;9.050;2022-07-05T17:16:54;0.75;;;0.75;;
13487;SDS011;6816;48.506;9.050;2022-07-05T17:19:55;0.70;;;0.70;;
13487;SDS011;6816;48.506;9.050;2022-07-05T17:22:56;0.70;;;0.70;;
13487;SDS011;6816;48.506;9.050;2022-07-05T17:25:56;1.58;;;0.90;;
13487;SDS011;6816;48.506;9.050;2022-07-05T17:28:57;0.93;;;0.77;;
13487;SDS011;6816;48.506;9.050;2022-07-05T17:31:58;0.70;;;0.70;;
13487;SDS011;6816;48.506;9.050;2022-07-05T17:34:58;0.70;;;0.70;;
13487;SDS011;6816;48.506;9.050;2022-07-05T17:37:59;1.15;;;0.80;;
13487;SDS011;6816;48.506;9.050;2022-07-05T17:41:00;1.38;;;0.85;;
13487;SDS011;6816;48.506;9.050;2022-07-05T17:44:01;1.10;;;0.70;;
13487;SDS011;6816;48.506;9.050;2022-07-05T17:47:01;0.75;;;0.75;;
13487;SDS011;6816;48.506;9.050;2022-07-05T17:50:02;1.00;;;0.80;;
13487;SDS011;6816;48.506;9.050;2022-07-05T17:53:03;1.20;;;0.60;;
13487;SDS011;6816;48.506;9.050;2022-07-05T17:56:04;1.20;;;0.90;;
13487;SDS011;6816;48.506;9.050;2022-07-05T17:59:05;0.70;;;0.70;;
13487;SDS011;6816;48.506;9.050;2022-07-05T18:02:06;3.50;;;0.73;;
13487;SDS011;6816;48.506;9.050;2022-07-05T18:05:07;2.00;;;0.93;;
13487;SDS011;6816;48.506;9.050;2022-07-05T18:08:07;0.63;;;0.60;;
13487;SDS011;6816;48.506;9.050;2022-07-05T18:11:08;2.53;;;0.80;;
13487;SDS011;6816;48.506;9.050;2022-07-05T18:14:10;1.83;;;0.80;;
13487;SDS011;6816;48.506;9.050;2022-07-05T18:17:11;0.70;;;0.70;;
13487;SDS011;6816;48.506;9.050;2022-07-05T18:20:11;2.25;;;0.85;;
13487;SDS011;6816;48.506;9.050;2022-07-05T18:23:12;1.13;;;0.95;;
13487;SDS011;6816;48.506;9.050;2022-07-05T18:26:14;0.70;;;0.70;;
13487;SDS011;6816;48.506;9.050;2022-07-05T18:29:15;1.95;;;0.75;;
13487;SDS011;6816;48.506;9.050;2022-07-05T18:32:15;1.67;;;1.10;;
13487;SDS011;6816;48.506;9.050;2022-07-05T18:35:16;0.70;;;0.70;;
13487;SDS011;6816;48.506;9.050;2022-07-05T18:38:16;3.08;;;0.82;;
13487;SDS011;6816;48.506;9.050;2022-07-05T18:41:17;0.98;;;0.98;;
13487;SDS011;6816;48.506;9.050;2022-07-05T18:44:18;1.25;;;1.00;;
13487;SDS011;6816;48.506;9.050;2022-07-05T18:47:19;0.70;;;0.70;;
13487;SDS011;6816;48.506;9.050;2022-07-05T18:50:20;0.80;;;0.80;;
13487;SDS011;6816;48.506;9.050;2022-07-05T18:53:20;0.70;;;0.65;;